DeKalb, Illinois
Current Conditions -  °F | °C
As of 4:55 PM on Monday 24 Nov 2014 (Local Time) from KDKB Reporting Station
Haze Haze  
Wind Chill:   Ceiling: 1100
Heat Index: 25°   Visibility: 5mi
Dew Point: 22°   Wind: 28mph
Humidity: 89%   Direction: 260°W
Pressure: 29.61"   Gusts: 38mph
Location:  41.93°N, 88.75°W
Report Text: KDKB 242255Z AUTO 26024G33KT 5SM BR OVC011 M04/M06 A2961 RMK AO2 T10411057
Loading
Personal Weather Stations






























Interactive Weather Map New forecast layout! Learn more

10-Day Weather Forecast

Advertisements
Track Severe Weather on mobile